createdAt,value
2019-05-07T00:01:02.925Z,100627.83
2019-05-07T00:03:32.965Z,100626.05
2019-05-07T00:06:02.792Z,100620.75
2019-05-07T00:08:32.314Z,100621.77
2019-05-07T00:11:02.285Z,100624.73
2019-05-07T00:13:33.288Z,100619.88
2019-05-07T00:16:02.602Z,100622.95
2019-05-07T00:18:32.322Z,100623.92
2019-05-07T00:21:03.359Z,100623.92
2019-05-07T00:23:32.508Z,100626.98
2019-05-07T00:26:03.309Z,100625.66
2019-05-07T00:28:32.564Z,100622.14
2019-05-07T00:31:02.863Z,100623.09
2019-05-07T00:33:32.916Z,100623.92
2019-05-07T00:36:12.389Z,100616.92
2019-05-07T00:38:43.466Z,100614.80
2019-05-07T00:41:37.996Z,100624.86
2019-05-07T00:44:07.655Z,100617.86
2019-05-07T00:46:36.863Z,100617.44
2019-05-07T00:49:05.844Z,100614.80
2019-05-07T00:51:35.879Z,100613.47
2019-05-07T00:54:06.287Z,100622.73
2019-05-07T00:56:34.461Z,100612.64
2019-05-07T00:59:03.493Z,100618.45
2019-05-07T01:01:33.758Z,100618.52
2019-05-07T01:04:02.901Z,100622.88
2019-05-07T01:06:33.095Z,100623.80
2019-05-07T01:09:03.194Z,100623.80
2019-05-07T01:11:33.523Z,100617.71
2019-05-07T01:16:50.010Z,100619.59
2019-05-07T01:19:18.996Z,100617.46
2019-05-07T01:21:47.857Z,100616.14
2019-05-07T01:24:16.708Z,100612.17
2019-05-07T01:26:45.640Z,100613.11
2019-05-07T01:29:14.731Z,100617.08
2019-05-07T01:31:58.777Z,100614.56
2019-05-07T01:34:46.267Z,100624.28
2019-05-07T01:37:15.062Z,100624.41
2019-05-07T01:39:44.046Z,100624.41
2019-05-07T01:42:32.753Z,100626.67
2019-05-07T01:45:03.062Z,100628.31
2019-05-07T01:47:33.142Z,100630.64
2019-05-07T01:50:03.029Z,100631.55
2019-05-07T01:52:33.189Z,100630.22
2019-05-07T01:55:03.183Z,100629.45
2019-05-07T01:57:32.850Z,100633.00
2019-05-07T02:00:02.718Z,100632.67
2019-05-07T02:02:44.220Z,100630.68
2019-05-07T02:05:24.865Z,100633.74
2019-05-07T02:07:57.632Z,100631.69
2019-05-07T02:10:37.622Z,100629.11
2019-05-07T02:13:06.643Z,100634.07
2019-05-07T02:18:32.442Z,100633.66
2019-05-07T02:21:03.203Z,100638.55
2019-05-07T02:23:33.052Z,100644.30
2019-05-07T02:26:02.528Z,100649.58
2019-05-07T02:28:32.980Z,100643.07
2019-05-07T02:31:04.011Z,100639.59
2019-05-07T02:33:35.074Z,100646.65
2019-05-07T02:36:03.469Z,100647.00
2019-05-07T02:38:44.267Z,100646.16
2019-05-07T02:41:16.350Z,100648.33
2019-05-07T02:43:45.401Z,100644.39
2019-05-07T02:46:36.326Z,100645.72
2019-05-07T02:49:23.290Z,100642.62
2019-05-07T02:52:19.285Z,100646.27
2019-05-07T02:55:13.329Z,100640.16
2019-05-07T02:57:43.481Z,100651.26
2019-05-07T03:00:14.692Z,100648.23
2019-05-07T03:02:43.834Z,100648.23
2019-05-07T03:05:13.857Z,100648.74
2019-05-07T03:07:43.005Z,100643.87
2019-05-07T03:10:13.898Z,100649.09
2019-05-07T03:12:43.192Z,100645.59
2019-05-07T03:15:13.243Z,100649.55
2019-05-07T03:17:43.107Z,100645.13
2019-05-07T03:20:16.303Z,100649.55
2019-05-07T03:22:45.164Z,100646.09
2019-05-07T03:25:54.241Z,100653.19
2019-05-07T03:28:24.254Z,100660.19
2019-05-07T03:31:05.964Z,100659.93
2019-05-07T03:33:39.966Z,100651.13
2019-05-07T03:36:09.082Z,100652.45
2019-05-07T03:38:38.155Z,100653.32
2019-05-07T03:41:07.304Z,100654.64
2019-05-07T03:43:55.444Z,100653.77
2019-05-07T03:46:24.279Z,100656.96
2019-05-07T03:48:53.342Z,100657.54
2019-05-07T03:51:23.793Z,100656.16
2019-05-07T03:53:53.663Z,100655.28
2019-05-07T03:56:23.609Z,100660.19
2019-05-07T03:58:53.180Z,100664.15
2019-05-07T04:01:24.047Z,100669.50
2019-05-07T04:03:53.402Z,100662.44
2019-05-07T04:06:23.422Z,100666.41
2019-05-07T04:08:53.326Z,100670.82
2019-05-07T04:11:23.148Z,100663.83
2019-05-07T04:13:53.515Z,100672.59
2019-05-07T04:16:23.947Z,100673.14
2019-05-07T04:18:53.224Z,100665.78
2019-05-07T04:21:23.193Z,100668.81
2019-05-07T04:24:07.114Z,100666.59
2019-05-07T04:26:42.940Z,100667.04
2019-05-07T04:29:15.766Z,100669.23
2019-05-07T04:31:44.849Z,100664.78
2019-05-07T04:34:25.355Z,100670.07
2019-05-07T04:36:54.146Z,100672.78
2019-05-07T04:39:23.520Z,100673.33
2019-05-07T04:41:53.177Z,100675.03
2019-05-07T04:44:23.517Z,100669.75
2019-05-07T04:46:53.321Z,100670.68
2019-05-07T04:49:23.803Z,100672.39
2019-05-07T04:52:03.981Z,100664.01
2019-05-07T04:54:33.270Z,100668.81
2019-05-07T04:57:03.619Z,100672.39
2019-05-07T04:59:33.075Z,100671.45
2019-05-07T05:02:10.063Z,100672.66
2019-05-07T05:04:38.985Z,100676.92
2019-05-07T05:07:08.001Z,100680.82
2019-05-07T05:09:37.082Z,100682.27
2019-05-07T05:12:06.059Z,100684.23
2019-05-07T05:14:35.361Z,100681.92
2019-05-07T05:17:04.356Z,100687.08
2019-05-07T05:19:33.384Z,100679.96
2019-05-07T05:22:23.633Z,100685.25
2019-05-07T05:25:12.115Z,100687.38
2019-05-07T05:27:42.908Z,100684.67
2019-05-07T05:30:13.875Z,100690.80
2019-05-07T05:32:42.791Z,100691.61
2019-05-07T05:35:12.609Z,100688.80
2019-05-07T05:37:42.890Z,100690.00
2019-05-07T05:40:12.354Z,100687.70
2019-05-07T05:42:46.564Z,100694.23
2019-05-07T05:45:34.809Z,100694.27
2019-05-07T05:48:07.371Z,100691.98
2019-05-07T05:50:42.320Z,100691.77
2019-05-07T05:53:39.499Z,100685.09
2019-05-07T05:56:18.714Z,100688.78
2019-05-07T05:58:57.312Z,100687.92
2019-05-07T06:01:52.094Z,100687.23
2019-05-07T06:04:28.635Z,100681.12
2019-05-07T06:07:11.277Z,100678.98
2019-05-07T06:09:54.001Z,100683.75
2019-05-07T06:12:44.025Z,100685.81
2019-05-07T06:15:26.436Z,100680.22
2019-05-07T06:18:02.737Z,100686.00
2019-05-07T06:20:48.678Z,100682.52
2019-05-07T06:23:35.673Z,100688.65
2019-05-07T06:26:05.338Z,100688.32
2019-05-07T06:28:35.655Z,100691.86
2019-05-07T06:31:04.766Z,100693.47
2019-05-07T06:33:33.731Z,100692.96
2019-05-07T06:36:02.995Z,100698.27
2019-05-07T06:38:36.316Z,100697.21
2019-05-07T06:41:33.219Z,100697.77
2019-05-07T06:44:06.092Z,100695.91
2019-05-07T06:46:35.269Z,100699.22
2019-05-07T06:49:04.257Z,100692.17
2019-05-07T06:51:33.250Z,100695.86
2019-05-07T06:54:02.869Z,100696.44
2019-05-07T06:56:32.587Z,100699.66
2019-05-07T06:59:07.150Z,100700.05
2019-05-07T07:01:55.081Z,100697.70
2019-05-07T07:04:42.343Z,100703.35
2019-05-07T07:07:37.108Z,100695.85
2019-05-07T07:10:34.934Z,100695.85
2019-05-07T07:13:03.939Z,100698.58
2019-05-07T07:15:32.971Z,100689.06
2019-05-07T07:18:03.156Z,100693.34
2019-05-07T07:20:32.761Z,100690.17
2019-05-07T07:23:02.335Z,100685.77
2019-05-07T07:25:32.605Z,100682.28
2019-05-07T07:28:02.781Z,100686.12
2019-05-07T07:30:52.679Z,100684.30
2019-05-07T07:33:23.338Z,100689.00
2019-05-07T07:35:52.256Z,100682.30
2019-05-07T07:38:33.297Z,100678.02
2019-05-07T07:41:14.136Z,100681.02
2019-05-07T07:43:43.068Z,100682.34
2019-05-07T07:46:13.156Z,100678.55
2019-05-07T07:48:43.523Z,100675.73
2019-05-07T07:51:13.893Z,100678.86
2019-05-07T07:53:43.255Z,100673.47
2019-05-07T07:56:52.336Z,100679.02
2019-05-07T07:59:45.423Z,100674.72
2019-05-07T08:02:26.377Z,100675.73
2019-05-07T08:05:14.144Z,100678.94
2019-05-07T08:07:43.079Z,100681.50
2019-05-07T08:10:12.874Z,100680.80
2019-05-07T08:12:42.327Z,100683.08
2019-05-07T08:15:18.236Z,100678.92
2019-05-07T08:17:42.274Z,100679.24
2019-05-07T08:20:13.999Z,100683.00
2019-05-07T08:22:43.032Z,100673.41
2019-05-07T08:25:12.562Z,100678.58
2019-05-07T08:27:42.098Z,100673.27
2019-05-07T08:33:05.333Z,100676.06
2019-05-07T08:35:56.391Z,100669.59
2019-05-07T08:38:25.428Z,100669.43
2019-05-07T08:40:54.319Z,100663.96
2019-05-07T08:43:23.478Z,100665.17
2019-05-07T08:46:11.960Z,100665.34
2019-05-07T08:48:45.071Z,100662.84
2019-05-07T08:51:14.155Z,100659.81
2019-05-07T08:53:42.988Z,100649.89
2019-05-07T08:56:12.542Z,100652.62
2019-05-07T08:58:42.068Z,100648.56
2019-05-07T09:01:11.835Z,100647.45
2019-05-07T09:03:44.166Z,100645.22
2019-05-07T09:06:14.226Z,100646.77
2019-05-07T09:08:43.720Z,100646.98
2019-05-07T09:11:13.295Z,100646.53
2019-05-07T09:13:42.504Z,100646.53
2019-05-07T09:16:13.015Z,100646.53
2019-05-07T09:18:42.367Z,100646.38
2019-05-07T09:21:12.500Z,100644.17
2019-05-07T09:23:42.370Z,100638.41
2019-05-07T09:26:13.201Z,100634.65
2019-05-07T09:28:59.895Z,100642.95
2019-05-07T09:31:36.581Z,100637.02
2019-05-07T09:34:05.495Z,100639.88
2019-05-07T09:36:42.438Z,100638.55
2019-05-07T09:39:12.882Z,100637.00
2019-05-07T09:41:41.794Z,100634.50
2019-05-07T09:44:11.941Z,100636.45
2019-05-07T09:46:42.887Z,100635.69
2019-05-07T09:49:12.082Z,100634.03
2019-05-07T09:51:42.682Z,100630.92
2019-05-07T09:54:12.720Z,100625.61
2019-05-07T09:56:42.222Z,100623.67
2019-05-07T09:59:12.567Z,100620.28
2019-05-07T10:01:40.823Z,100618.27
2019-05-07T10:04:10.784Z,100621.58
2019-05-07T10:06:39.792Z,100622.64
2019-05-07T10:09:08.820Z,100621.96
2019-05-07T10:11:43.593Z,100615.78
2019-05-07T10:14:12.814Z,100618.36
2019-05-07T10:17:02.742Z,100613.33
2019-05-07T10:19:32.473Z,100608.27
2019-05-07T10:22:02.344Z,100606.40
2019-05-07T10:24:31.412Z,100598.36
2019-05-07T10:27:02.261Z,100599.60
2019-05-07T10:29:32.246Z,100596.20
2019-05-07T10:32:02.244Z,100593.27
2019-05-07T10:34:31.399Z,100587.34
2019-05-07T10:37:02.649Z,100587.55
2019-05-07T10:39:32.522Z,100586.55
2019-05-07T10:42:01.901Z,100584.90
2019-05-07T10:44:36.243Z,100583.81
2019-05-07T10:47:24.110Z,100585.23
2019-05-07T10:50:11.994Z,100580.00
2019-05-07T10:52:42.510Z,100584.73
2019-05-07T10:55:12.153Z,100581.86
2019-05-07T10:57:42.278Z,100584.06
2019-05-07T11:00:14.618Z,100577.97
2019-05-07T11:02:43.649Z,100581.08
2019-05-07T11:05:13.092Z,100579.59
2019-05-07T11:07:42.341Z,100578.09
2019-05-07T11:10:12.409Z,100579.63
2019-05-07T11:12:42.474Z,100574.77
2019-05-07T11:15:12.586Z,100571.78
2019-05-07T11:18:04.155Z,100571.95
2019-05-07T11:20:45.666Z,100567.88
2019-05-07T11:23:03.947Z,100565.60
2019-05-07T11:25:33.143Z,100559.50
2019-05-07T11:28:02.810Z,100557.80
2019-05-07T11:30:32.134Z,100551.33
2019-05-07T11:33:02.730Z,100558.42
2019-05-07T11:35:32.028Z,100553.20
2019-05-07T11:38:11.024Z,100551.88
2019-05-07T11:40:34.744Z,100557.42
2019-05-07T11:43:33.657Z,100543.89
2019-05-07T11:46:13.494Z,100540.57
2019-05-07T11:49:06.326Z,100540.48
2019-05-07T11:51:46.282Z,100529.77
2019-05-07T11:54:15.216Z,100532.17
2019-05-07T11:56:44.252Z,100519.58
2019-05-07T11:59:13.624Z,100519.88
2019-05-07T12:01:47.808Z,100526.92
2019-05-07T12:04:17.436Z,100522.77
2019-05-07T12:06:46.449Z,100518.28
2019-05-07T12:09:15.371Z,100516.03
2019-05-07T12:11:44.446Z,100522.97
2019-05-07T12:14:13.425Z,100509.06
2019-05-07T12:16:42.747Z,100507.63
2019-05-07T12:19:16.408Z,100502.31
2019-05-07T12:21:44.158Z,100497.45
2019-05-07T12:24:16.260Z,100498.70
2019-05-07T12:26:44.558Z,100500.27
2019-05-07T12:29:13.592Z,100492.29
2019-05-07T12:31:55.734Z,100489.92
2019-05-07T12:34:46.990Z,100481.86
2019-05-07T12:37:15.965Z,100478.84
2019-05-07T12:39:44.995Z,100479.83
2019-05-07T12:42:13.936Z,100476.17
2019-05-07T12:44:43.550Z,100472.57
2019-05-07T12:47:12.596Z,100469.73
2019-05-07T12:49:42.916Z,100471.75
2019-05-07T12:52:31.916Z,100471.66
2019-05-07T12:55:23.138Z,100473.45
2019-05-07T12:57:52.023Z,100463.69
2019-05-07T13:00:38.419Z,100459.27
2019-05-07T13:03:25.178Z,100454.84
2019-05-07T13:05:54.425Z,100456.66
2019-05-07T13:08:23.663Z,100450.48
2019-05-07T13:10:52.771Z,100455.80
2019-05-07T13:13:21.692Z,100450.85
2019-05-07T13:15:51.790Z,100449.06
2019-05-07T13:18:22.500Z,100448.05
2019-05-07T13:20:51.946Z,100444.55
2019-05-07T13:23:22.525Z,100445.38
2019-05-07T13:25:52.237Z,100432.58
2019-05-07T13:28:21.228Z,100432.23
2019-05-07T13:30:52.478Z,100433.66
2019-05-07T13:33:22.662Z,100433.66
2019-05-07T13:35:52.338Z,100431.87
2019-05-07T13:38:42.540Z,100420.27
2019-05-07T13:41:35.668Z,100419.38
2019-05-07T13:44:14.671Z,100414.49
2019-05-07T13:46:44.977Z,100408.49
2019-05-07T13:49:13.983Z,100407.66
2019-05-07T13:51:42.834Z,100407.94
2019-05-07T13:54:12.894Z,100400.83
2019-05-07T13:56:42.063Z,100399.44
2019-05-07T13:59:13.141Z,100395.45
2019-05-07T14:01:51.286Z,100394.03
2019-05-07T14:04:22.161Z,100390.88
2019-05-07T14:06:52.815Z,100390.88
2019-05-07T14:09:24.363Z,100392.61
2019-05-07T14:11:53.475Z,100384.62
2019-05-07T14:14:22.599Z,100388.22
2019-05-07T14:16:53.036Z,100387.75
2019-05-07T14:19:22.665Z,100384.23
2019-05-07T14:21:52.507Z,100382.89
2019-05-07T14:24:22.393Z,100379.00
2019-05-07T14:26:52.828Z,100381.56
2019-05-07T14:29:24.442Z,100379.41
2019-05-07T14:32:03.243Z,100377.89
2019-05-07T14:34:35.388Z,100373.99
2019-05-07T14:37:22.074Z,100373.06
2019-05-07T14:39:51.810Z,100374.20
2019-05-07T14:42:28.217Z,100363.17
2019-05-07T14:44:57.202Z,100369.35
2019-05-07T14:47:26.257Z,100366.77
2019-05-07T14:49:55.234Z,100362.13
2019-05-07T14:52:32.207Z,100363.63
2019-05-07T14:54:54.958Z,100363.84
2019-05-07T14:57:23.832Z,100361.63
2019-05-07T14:59:52.711Z,100356.41
2019-05-07T15:02:23.493Z,100354.19
2019-05-07T15:04:52.597Z,100354.95
2019-05-07T15:07:22.633Z,100352.46
2019-05-07T15:09:52.099Z,100350.20
2019-05-07T15:12:23.127Z,100352.09
2019-05-07T15:14:52.743Z,100348.00
2019-05-07T15:17:42.006Z,100351.33
2019-05-07T15:20:11.171Z,100354.86
2019-05-07T15:22:52.508Z,100352.86
2019-05-07T15:25:22.538Z,100347.93
2019-05-07T15:27:52.663Z,100351.26
2019-05-07T15:30:22.464Z,100349.25
2019-05-07T15:32:52.134Z,100347.28
2019-05-07T15:35:21.117Z,100350.05
2019-05-07T15:37:51.829Z,100350.61
2019-05-07T15:40:22.532Z,100344.52
2019-05-07T15:42:52.492Z,100347.38
2019-05-07T15:45:21.850Z,100340.91
2019-05-07T15:47:52.613Z,100342.24
2019-05-07T15:50:23.751Z,100340.55
2019-05-07T15:53:01.762Z,100337.21
2019-05-07T15:55:31.033Z,100334.65
2019-05-07T15:58:02.661Z,100331.25
2019-05-07T16:00:33.518Z,100334.47
2019-05-07T16:03:25.700Z,100331.44
2019-05-07T16:05:54.727Z,100327.64
2019-05-07T16:08:24.732Z,100327.44
2019-05-07T16:10:53.696Z,100328.77
2019-05-07T16:13:26.560Z,100325.73
2019-05-07T16:15:55.534Z,100322.40
2019-05-07T16:18:29.431Z,100320.70
2019-05-07T16:20:58.361Z,100318.50
2019-05-07T16:23:27.375Z,100315.58
2019-05-07T16:25:56.486Z,100322.69
2019-05-07T16:28:25.478Z,100324.42
2019-05-07T16:30:54.713Z,100324.88
2019-05-07T16:33:23.653Z,100316.14
2019-05-07T16:35:52.676Z,100314.91
2019-05-07T16:38:22.160Z,100319.85
2019-05-07T16:40:52.211Z,100316.42
2019-05-07T16:43:22.107Z,100311.10
2019-05-07T16:45:51.794Z,100311.69
2019-05-07T16:48:23.103Z,100304.18
2019-05-07T16:50:52.336Z,100306.56
2019-05-07T16:53:29.655Z,100299.92
2019-05-07T16:55:52.307Z,100300.38
2019-05-07T16:58:49.216Z,100300.84
2019-05-07T17:01:18.262Z,100292.50
2019-05-07T17:03:56.129Z,100293.05
2019-05-07T17:06:25.369Z,100294.48
2019-05-07T17:09:13.401Z,100291.08
2019-05-07T17:11:43.659Z,100291.55
2019-05-07T17:14:13.220Z,100289.08
2019-05-07T17:16:41.996Z,100293.53
2019-05-07T17:19:12.270Z,100290.50
2019-05-07T17:21:40.374Z,100287.17
2019-05-07T17:24:09.397Z,100285.53
2019-05-07T17:26:38.665Z,100288.28
2019-05-07T17:29:07.642Z,100283.93
2019-05-07T17:31:36.431Z,100282.70
2019-05-07T17:34:05.451Z,100281.45
2019-05-07T17:36:34.596Z,100282.02
2019-05-07T17:39:05.471Z,100282.11
2019-05-07T17:41:34.520Z,100278.59
2019-05-07T17:44:03.535Z,100281.84
2019-05-07T17:46:33.120Z,100284.19
2019-05-07T17:49:02.618Z,100280.79
2019-05-07T17:51:43.508Z,100280.79
2019-05-07T17:54:13.413Z,100283.14
2019-05-07T17:56:43.110Z,100283.23
2019-05-07T17:59:12.993Z,100284.56
2019-05-07T18:02:15.808Z,100283.33
2019-05-07T18:04:51.273Z,100271.45
2019-05-07T18:07:17.710Z,100271.18
2019-05-07T18:09:46.632Z,100276.50
2019-05-07T18:12:15.621Z,100269.85
2019-05-07T18:14:44.643Z,100268.25
2019-05-07T18:17:35.576Z,100266.61
2019-05-07T18:20:04.861Z,100270.59
2019-05-07T18:22:33.801Z,100268.98
2019-05-07T18:25:02.814Z,100270.31
2019-05-07T18:27:32.976Z,100270.04
2019-05-07T18:30:02.847Z,100266.61
2019-05-07T18:32:42.726Z,100270.31
2019-05-07T18:35:12.599Z,100267.75
2019-05-07T18:37:52.580Z,100266.02
2019-05-07T18:40:22.343Z,100256.81
2019-05-07T18:42:52.427Z,100256.91
2019-05-07T18:45:21.760Z,100257.00
2019-05-07T18:47:51.703Z,100257.19
2019-05-07T18:50:22.609Z,100256.81
2019-05-07T18:52:52.217Z,100263.92
2019-05-07T18:55:22.651Z,100262.59
2019-05-07T18:57:52.146Z,100262.22
2019-05-07T19:00:28.167Z,100266.98
2019-05-07T19:02:57.343Z,100258.60
2019-05-07T19:05:26.426Z,100255.58
2019-05-07T19:08:04.280Z,100258.05
2019-05-07T19:10:26.230Z,100258.23
2019-05-07T19:12:55.232Z,100261.99
2019-05-07T19:15:24.455Z,100266.84
2019-05-07T19:17:53.507Z,100263.05
2019-05-07T19:20:22.417Z,100264.92
2019-05-07T19:22:51.917Z,100265.02
2019-05-07T19:25:21.035Z,100268.16
2019-05-07T19:27:50.056Z,100262.95
2019-05-07T19:30:41.922Z,100267.85
2019-05-07T19:33:12.298Z,100270.59
2019-05-07T19:35:41.872Z,100272.60
2019-05-07T19:38:10.860Z,100266.42
2019-05-07T19:40:41.918Z,100272.78
2019-05-07T19:43:12.907Z,100267.56
2019-05-07T19:45:41.921Z,100266.33
2019-05-07T19:48:12.420Z,100265.91
2019-05-07T19:50:42.049Z,100266.01
2019-05-07T19:53:12.514Z,100268.29
2019-05-07T19:55:59.058Z,100268.38
2019-05-07T19:58:28.061Z,100267.14
2019-05-07T20:00:57.441Z,100264.11
2019-05-07T20:03:26.680Z,100264.66
2019-05-07T20:05:55.655Z,100259.45
2019-05-07T20:08:24.726Z,100255.09
2019-05-07T20:10:58.794Z,100254.78
2019-05-07T20:13:27.771Z,100253.08
2019-05-07T20:16:07.084Z,100255.82
2019-05-07T20:18:36.017Z,100251.47
2019-05-07T20:21:04.878Z,100258.66
2019-05-07T20:23:33.861Z,100252.60
2019-05-07T20:26:03.115Z,100254.81
2019-05-07T20:28:32.773Z,100251.79
2019-05-07T20:31:01.794Z,100247.89
2019-05-07T20:33:32.781Z,100249.77
2019-05-07T20:36:02.658Z,100243.23
2019-05-07T20:38:32.127Z,100247.79
2019-05-07T20:41:02.094Z,100253.93
2019-05-07T20:43:32.672Z,100249.12
2019-05-07T20:46:02.687Z,100248.42
2019-05-07T20:48:32.468Z,100244.16
2019-05-07T20:51:01.963Z,100242.92
2019-05-07T20:53:48.397Z,100242.52
2019-05-07T20:56:18.328Z,100241.69
2019-05-07T20:58:47.242Z,100235.14
2019-05-07T21:01:16.047Z,100233.49
2019-05-07T21:03:45.155Z,100231.80
2019-05-07T21:06:14.147Z,100234.08
2019-05-07T21:08:43.172Z,100231.02
2019-05-07T21:11:12.144Z,100228.94
2019-05-07T21:13:44.102Z,100228.94
2019-05-07T21:16:12.603Z,100224.64
2019-05-07T21:18:42.212Z,100219.92
2019-05-07T21:21:12.471Z,100218.68
2019-05-07T21:23:43.457Z,100210.31
2019-05-07T21:26:13.059Z,100213.55
2019-05-07T21:28:43.145Z,100213.14
2019-05-07T21:31:12.250Z,100202.63
2019-05-07T21:33:42.915Z,100201.30
2019-05-07T21:36:12.287Z,100202.34
2019-05-07T21:38:42.565Z,100194.38
2019-05-07T21:41:12.911Z,100197.98
2019-05-07T21:43:45.721Z,100190.95
2019-05-07T21:46:13.016Z,100182.24
2019-05-07T21:48:42.263Z,100181.38
2019-05-07T21:51:12.175Z,100173.97
2019-05-07T21:53:47.159Z,100174.92
2019-05-07T21:56:43.990Z,100173.22
2019-05-07T21:59:16.245Z,100164.95
2019-05-07T22:01:47.179Z,100158.49
2019-05-07T22:04:16.103Z,100157.66
2019-05-07T22:06:45.553Z,100151.86
2019-05-07T22:09:15.405Z,100145.41
2019-05-07T22:11:44.358Z,100147.23
2019-05-07T22:14:13.489Z,100149.56
2019-05-07T22:16:42.748Z,100146.63
2019-05-07T22:19:12.267Z,100144.44
2019-05-07T22:21:43.175Z,100147.09
2019-05-07T22:24:14.686Z,100139.71
2019-05-07T22:26:42.923Z,100147.09
2019-05-07T22:29:12.616Z,100152.56
2019-05-07T22:32:02.758Z,100148.67
2019-05-07T22:34:36.354Z,100147.34
2019-05-07T22:37:05.179Z,100140.89
2019-05-07T22:39:34.236Z,100139.56
2019-05-07T22:42:03.486Z,100136.17
2019-05-07T22:44:32.468Z,100134.44
2019-05-07T22:47:18.741Z,100127.52
2019-05-07T22:49:48.849Z,100120.53
2019-05-07T22:52:18.543Z,100115.77
2019-05-07T22:54:47.585Z,100111.42
2019-05-07T22:57:44.467Z,100110.27
2019-05-07T23:00:22.487Z,100113.92
2019-05-07T23:02:51.698Z,100109.20
2019-05-07T23:05:22.964Z,100103.50
2019-05-07T23:07:52.636Z,100094.71
2019-05-07T23:10:22.521Z,100096.95
2019-05-07T23:12:51.695Z,100097.54
2019-05-07T23:15:22.591Z,100085.20
2019-05-07T23:17:51.421Z,100088.34
2019-05-07T23:20:24.091Z,100087.94
2019-05-07T23:22:52.089Z,100081.03
2019-05-07T23:25:24.306Z,100073.63
2019-05-07T23:27:52.469Z,100066.63
2019-05-07T23:30:22.378Z,100070.98
2019-05-07T23:32:52.841Z,100067.58
2019-05-07T23:35:22.292Z,100061.05
2019-05-07T23:37:52.997Z,100059.22
2019-05-07T23:40:43.768Z,100060.27
2019-05-07T23:43:13.213Z,100058.48
2019-05-07T23:45:42.121Z,100052.03
2019-05-07T23:48:12.357Z,100042.75
2019-05-07T23:50:41.887Z,100037.05
2019-05-07T23:53:12.948Z,100031.55
2019-05-07T23:55:42.476Z,100033.39
2019-05-07T23:58:13.858Z,100035.20
